Time;durP1;ratioP1;P1;durP2;ratioP2;P2;SDS_P1;SDS_P2;PMS_P1;PMS_P2;Temp;Humidity;BMP_temperature;BMP_pressure;BME280_temperature;BME280_humidity;BME280_pressure;Samples;Min_cycle;Max_cycle;Signal;HPM_P1;HPM_P2
2022/01/14 00:00:16;;;;;;;13.85;4.90;;;;;;;8.29;83.31;101712.72;4994001;28;20466;-83
2022/01/14 00:02:43;;;;;;;16.40;4.57;;;;;;;8.30;83.36;101685.59;4994643;28;20046;-83
2022/01/14 00:05:11;;;;;;;14.32;4.40;;;;;;;8.31;83.09;101711.09;5010140;28;20053;-83
2022/01/14 00:07:39;;;;;;;10.40;3.03;;;;;;;8.31;82.97;101701.47;5009163;28;20050;-84
2022/01/14 00:10:08;;;;;;;14.27;4.30;;;;;;;8.31;83.07;101726.88;5010409;28;20046;-85
2022/01/14 00:12:40;;;;;;;13.88;4.95;;;;;;;8.29;82.96;101723.25;4997075;28;20034;-84
2022/01/14 00:15:24;;;;;;;12.13;4.38;;;;;;;8.29;82.80;101745.19;4994044;28;20117;-85
2022/01/14 00:17:52;;;;;;;12.85;3.22;;;;;;;8.27;82.97;101707.38;4998485;28;20545;-85
2022/01/14 00:20:20;;;;;;;16.17;3.20;;;;;;;8.28;83.03;101719.72;5033078;28;20033;-85
2022/01/14 00:22:48;;;;;;;16.10;4.05;;;;;;;8.30;82.96;101735.56;5033413;28;20030;-85
2022/01/14 00:33:32;;;;;;;14.95;3.78;;;;;;;8.18;83.54;101727.19;4993401;28;20054;-81
2022/01/14 00:35:59;;;;;;;16.25;4.25;;;;;;;8.17;83.42;101734.16;4992969;28;21590;-81
2022/01/14 00:38:27;;;;;;;17.55;4.45;;;;;;;8.18;83.25;101735.06;4993385;28;20073;-81
2022/01/14 00:40:54;;;;;;;18.92;5.78;;;;;;;8.19;83.01;101736.88;4992829;28;20069;-81
2022/01/14 00:43:22;;;;;;;13.90;3.50;;;;;;;8.21;83.14;101724.66;4993043;28;20097;-84
2022/01/14 00:45:53;;;;;;;22.98;4.30;;;;;;;8.22;82.82;101740.50;4994490;28;20691;-82
2022/01/14 00:48:21;;;;;;;14.20;4.63;;;;;;;8.23;82.96;101729.16;4994035;28;20042;-82
2022/01/14 00:50:48;;;;;;;15.60;3.97;;;;;;;8.25;82.68;101745.91;4994083;28;20052;-82
2022/01/14 00:53:16;;;;;;;21.92;4.10;;;;;;;8.27;82.69;101723.16;4992996;28;20042;-83
2022/01/14 00:55:52;;;;;;;20.58;6.40;;;;;;;8.24;82.39;101753.72;5022667;28;20125;-82
2022/01/14 01:01:06;;;;;;;19.25;7.93;;;;;;;8.20;81.36;101747.47;4991279;28;20047;-83
2022/01/14 01:03:34;;;;;;;18.00;7.30;;;;;;;8.16;81.34;101742.88;4997734;28;20049;-83
2022/01/14 01:06:02;;;;;;;19.33;6.13;;;;;;;8.18;81.08;101735.06;4992736;28;20042;-85
2022/01/14 01:08:31;;;;;;;20.05;6.00;;;;;;;8.19;80.86;101732.50;4994230;28;20073;-85
2022/01/14 01:10:59;;;;;;;15.00;4.63;;;;;;;8.18;80.68;101717.56;4993014;28;20384;-84
2022/01/14 01:13:31;;;;;;;12.75;4.03;;;;;;;8.18;80.54;101721.91;4992433;28;20044;-84
2022/01/14 01:15:59;;;;;;;12.60;3.70;;;;;;;8.16;80.11;101731.47;5015219;28;20641;-85
2022/01/14 01:18:29;;;;;;;16.50;3.10;;;;;;;8.15;80.51;101717.41;5003457;28;20125;-84
2022/01/14 01:20:57;;;;;;;15.07;4.25;;;;;;;8.14;80.63;101718.25;4992556;28;20046;-84
2022/01/14 01:23:25;;;;;;;14.18;3.47;;;;;;;8.14;80.98;101718.25;4993888;28;20119;-85
2022/01/14 01:26:09;;;;;;;15.93;3.67;;;;;;;8.17;81.40;101720.13;4992406;28;20055;-86
2022/01/14 01:28:51;;;;;;;18.00;4.15;;;;;;;8.19;81.63;101700.03;5012295;28;20057;-85
2022/01/14 01:34:02;;;;;;;17.50;4.03;;;;;;;8.17;81.73;101697.34;4984584;28;20061;-82
2022/01/14 01:36:29;;;;;;;18.52;4.65;;;;;;;8.14;82.15;101701.59;4990773;28;21557;-83
2022/01/14 01:38:57;;;;;;;14.93;4.07;;;;;;;8.12;82.09;101688.38;4991603;28;20073;-84
2022/01/14 01:41:25;;;;;;;16.77;5.20;;;;;;;8.13;82.04;101690.19;4993068;28;20042;-82
2022/01/14 01:43:55;;;;;;;14.30;4.03;;;;;;;8.13;81.92;101681.41;4993072;28;20120;-83
2022/01/14 01:46:24;;;;;;;17.58;5.07;;;;;;;8.11;81.73;101675.16;4996605;28;20128;-85
2022/01/14 01:48:52;;;;;;;14.70;4.10;;;;;;;8.10;81.69;101674.28;4994720;28;20042;-84
2022/01/14 01:51:22;;;;;;;11.38;3.25;;;;;;;8.09;81.31;101674.19;4992912;28;20096;-84
2022/01/14 01:53:50;;;;;;;17.80;4.57;;;;;;;8.06;81.36;101659.22;4992601;28;20042;-85
2022/01/14 01:56:18;;;;;;;16.00;4.22;;;;;;;8.02;80.87;101673.97;4992905;28;20563;-85
2022/01/14 01:58:46;;;;;;;15.48;3.88;;;;;;;8.02;80.66;101666.06;4992795;28;20042;-83
2022/01/14 02:01:13;;;;;;;12.63;3.38;;;;;;;8.03;80.82;101659.09;4991933;28;20049;-84
2022/01/14 02:03:42;;;;;;;19.10;4.53;;;;;;;8.07;80.93;101655.75;5000654;28;20402;-84
2022/01/14 02:06:09;;;;;;;20.85;4.57;;;;;;;8.12;81.23;101667.34;5012873;28;20125;-85
2022/01/14 02:08:38;;;;;;;13.85;4.55;;;;;;;8.16;81.31;101640.31;4995377;28;20137;-85
2022/01/14 02:11:06;;;;;;;17.13;3.88;;;;;;;8.15;81.11;101646.41;5011226;28;20566;-85
2022/01/14 02:13:35;;;;;;;14.90;4.18;;;;;;;8.16;81.26;101648.22;4995208;28;20038;-86
2022/01/14 02:16:17;;;;;;;13.05;3.55;;;;;;;8.16;81.13;101648.22;5004764;28;20385;-86
2022/01/14 02:19:10;;;;;;;18.98;4.18;;;;;;;8.16;80.38;101645.59;4975171;28;20054;-87
2022/01/14 02:27:19;;;;;;;11.15;3.00;;;;;;;8.15;80.38;101598.19;4994776;28;20522;-86
2022/01/14 02:29:46;;;;;;;17.50;4.57;;;;;;;8.20;80.63;101622.94;5012480;28;20093;-86
2022/01/14 02:32:14;;;;;;;12.55;3.97;;;;;;;8.22;80.33;101610.72;5011583;28;20056;-85
2022/01/14 02:34:41;;;;;;;18.05;4.57;;;;;;;8.25;80.02;101626.66;5011232;28;20137;-84
2022/01/14 02:37:11;;;;;;;19.50;4.22;;;;;;;8.29;80.16;101620.66;5011299;28;20052;-85
2022/01/14 02:39:40;;;;;;;20.40;4.72;;;;;;;8.30;80.33;101626.00;5012624;28;20050;-85
2022/01/14 02:42:10;;;;;;;13.50;3.13;;;;;;;8.29;80.45;101613.66;4994895;28;20042;-85
2022/01/14 02:44:38;;;;;;;11.60;3.35;;;;;;;8.29;80.12;101594.34;5008486;28;20560;-83
2022/01/14 02:47:06;;;;;;;19.92;4.15;;;;;;;8.29;80.36;101613.66;5030851;28;20436;-84
2022/01/14 02:49:36;;;;;;;18.23;3.70;;;;;;;8.33;80.33;101602.47;4995671;28;20038;-85
2022/01/14 02:52:08;;;;;;;11.07;3.20;;;;;;;8.33;80.12;101601.56;5018262;28;20049;-85
2022/01/14 02:54:52;;;;;;;18.58;4.53;;;;;;;8.37;80.14;101607.00;5007580;28;20049;-86
2022/01/14 02:57:20;;;;;;;18.27;3.92;;;;;;;8.39;80.07;101602.72;5018629;28;20041;-85
2022/01/14 02:59:49;;;;;;;11.65;3.95;;;;;;;8.40;79.69;101590.44;4991983;28;20042;-83
2022/01/14 03:02:19;;;;;;;16.92;4.05;;;;;;;8.39;79.34;101615.84;4976673;28;20043;-85
2022/01/14 03:04:47;;;;;;;21.10;4.72;;;;;;;8.41;79.18;101615.88;4982770;28;20097;-85
2022/01/14 03:07:15;;;;;;;15.95;3.35;;;;;;;8.40;79.12;101611.50;4995093;28;20043;-83
2022/01/14 03:09:45;;;;;;;9.95;2.42;;;;;;;8.41;78.84;101608.00;4994614;28;20050;-85
2022/01/14 03:12:13;;;;;;;14.93;3.47;;;;;;;8.39;78.27;101604.44;4995598;28;20046;-84
2022/01/14 03:14:40;;;;;;;20.30;3.20;;;;;;;8.38;77.78;101595.66;4991544;28;20101;-84
2022/01/14 03:17:08;;;;;;;13.95;3.22;;;;;;;8.39;77.20;101615.84;5017586;28;20069;-85
2022/01/14 03:19:35;;;;;;;14.93;2.85;;;;;;;8.38;76.73;101602.63;4996185;28;20534;-85
2022/01/14 03:22:17;;;;;;;14.48;2.80;;;;;;;8.36;75.68;101596.41;4995872;28;20534;-85
2022/01/14 03:27:31;;;;;;;19.00;3.20;;;;;;;8.41;75.45;101610.63;5015752;28;20058;-85
2022/01/14 03:30:00;;;;;;;14.05;2.53;;;;;;;8.42;75.20;101619.41;4997365;28;20121;-85
2022/01/14 03:32:28;;;;;;;17.98;2.80;;;;;;;8.43;75.46;101603.69;5013893;28;20556;-85
2022/01/14 03:34:56;;;;;;;12.00;2.55;;;;;;;8.42;75.09;101609.78;5014920;28;20052;-84
2022/01/14 03:37:23;;;;;;;8.98;2.40;;;;;;;8.42;74.49;101615.06;5014848;28;20497;-84
2022/01/14 03:39:52;;;;;;;12.77;2.15;;;;;;;8.43;74.19;101622.13;5015086;28;20456;-84
2022/01/14 03:42:20;;;;;;;17.05;3.50;;;;;;;8.42;74.18;101625.56;5015124;28;20061;-84
2022/01/14 03:44:47;;;;;;;8.32;2.72;;;;;;;8.41;73.39;101631.69;5013921;28;20117;-83
2022/01/14 03:47:15;;;;;;;11.68;2.90;;;;;;;8.44;73.31;101623.91;5001513;28;20045;-84
2022/01/14 03:49:43;;;;;;;17.70;3.67;;;;;;;8.46;73.62;101622.25;5014927;28;20081;-83
2022/01/14 03:52:10;;;;;;;10.32;2.53;;;;;;;8.50;73.30;101628.50;5014567;28;20056;-83
2022/01/14 03:54:38;;;;;;;11.13;2.28;;;;;;;8.49;72.60;101634.59;5014210;28;20609;-83
2022/01/14 03:57:08;;;;;;;9.18;2.20;;;;;;;8.51;72.00;101628.56;4978038;28;20038;-82
2022/01/14 03:59:36;;;;;;;10.73;2.60;;;;;;;8.48;71.67;101638.97;4999811;28;20041;-83
2022/01/14 04:02:04;;;;;;;13.98;2.75;;;;;;;8.50;71.63;101645.19;5014635;28;20556;-82
2022/01/14 04:04:32;;;;;;;11.98;2.95;;;;;;;8.52;70.69;101625.09;5014659;28;20072;-82
2022/01/14 04:06:59;;;;;;;11.90;3.00;;;;;;;8.53;69.69;101634.81;5014549;28;20046;-82
2022/01/14 04:09:27;;;;;;;11.10;2.40;;;;;;;8.54;70.10;101635.66;5013470;28;20117;-82
2022/01/14 04:11:56;;;;;;;8.85;2.00;;;;;;;8.57;69.96;101626.16;5014123;28;20045;-83
2022/01/14 04:17:10;;;;;;;10.50;2.60;;;;;;;8.58;69.20;101627.06;5013494;28;20041;-78
2022/01/14 04:19:38;;;;;;;17.77;3.22;;;;;;;8.59;68.90;101647.28;5013434;28;20073;-82
2022/01/14 04:22:06;;;;;;;9.98;2.83;;;;;;;8.59;69.02;101637.66;4997448;28;20058;-82
2022/01/14 04:24:33;;;;;;;14.38;2.65;;;;;;;8.62;69.05;101642.13;4993343;28;20046;-82
2022/01/14 04:27:01;;;;;;;12.55;3.75;;;;;;;8.66;69.78;101638.78;4993101;28;20043;-83
2022/01/14 04:29:32;;;;;;;12.75;2.97;;;;;;;8.72;70.15;101639.91;5003693;28;20113;-83
2022/01/14 04:32:00;;;;;;;13.35;3.65;;;;;;;8.70;71.45;101644.22;5011535;28;20057;-80
2022/01/14 04:34:27;;;;;;;14.95;4.70;;;;;;;8.70;72.25;101633.69;5013812;28;20498;-82
2022/01/14 04:36:55;;;;;;;16.67;5.07;;;;;;;8.69;71.94;101638.88;5013794;28;20045;-83
2022/01/14 04:39:22;;;;;;;19.13;5.88;;;;;;;8.69;72.25;101641.50;5012357;28;20096;-83
2022/01/14 04:41:50;;;;;;;14.02;3.63;;;;;;;8.68;72.26;101650.25;5012776;28;20544;-83
2022/01/14 04:44:18;;;;;;;19.17;7.00;;;;;;;8.67;71.77;101638.81;5013692;28;20045;-82
2022/01/14 04:47:13;;;;;;;19.90;6.55;;;;;;;8.68;71.28;101651.16;5013258;28;20040;-80
2022/01/14 04:49:40;;;;;;;15.23;3.03;;;;;;;8.65;69.86;101635.25;4997078;28;20060;-82
2022/01/14 04:52:08;;;;;;;10.43;3.47;;;;;;;8.66;69.44;101650.19;4994451;28;20047;-82
2022/01/14 04:54:36;;;;;;;12.32;3.25;;;;;;;8.67;68.77;101637.91;4992683;28;20046;-82
2022/01/14 04:57:04;;;;;;;18.42;3.45;;;;;;;8.70;69.03;101638.94;5015266;28;20037;-83
2022/01/14 04:59:32;;;;;;;13.25;4.20;;;;;;;8.71;69.39;101638.13;4999827;28;20073;-85
2022/01/14 05:02:01;;;;;;;15.13;3.08;;;;;;;8.75;69.15;101641.75;4992587;28;20038;-85
2022/01/14 05:04:29;;;;;;;11.27;2.75;;;;;;;8.76;68.50;101635.63;4992941;28;20042;-87
2022/01/14 05:07:02;;;;;;;10.65;2.65;;;;;;;8.77;68.31;101630.44;4992769;28;20106;-86
2022/01/14 05:09:35;;;;;;;12.63;3.25;;;;;;;8.81;68.26;101641.97;4998796;28;20042;-85
2022/01/14 05:12:08;;;;;;;10.65;3.30;;;;;;;8.85;69.13;101635.09;5024003;28;20050;-85
2022/01/14 05:14:36;;;;;;;9.95;2.90;;;;;;;8.89;70.47;101629.09;4991924;28;20038;-87
2022/01/14 05:17:06;;;;;;;15.85;3.78;;;;;;;8.88;71.90;101649.25;4993499;28;20129;-87
2022/01/14 05:19:34;;;;;;;23.27;6.55;;;;;;;8.84;73.18;101646.44;4993934;28;20046;-88
2022/01/14 05:22:01;;;;;;;11.30;4.95;;;;;;;8.80;73.97;101651.59;4992277;28;20050;-87
2022/01/14 05:24:29;;;;;;;22.40;5.63;;;;;;;8.79;74.28;101657.69;4996715;28;20053;-85
2022/01/14 05:26:56;;;;;;;29.60;7.45;;;;;;;8.75;74.47;101626.84;4992067;28;20047;-82
2022/01/14 05:29:24;;;;;;;19.73;5.93;;;;;;;8.73;74.49;101643.41;4993265;28;20128;-83
2022/01/14 05:32:01;;;;;;;13.90;4.20;;;;;;;8.72;73.79;101652.16;4994333;28;20450;-86
2022/01/14 05:34:31;;;;;;;13.05;3.45;;;;;;;8.70;73.60;101667.91;4992825;28;20041;-86
2022/01/14 05:36:59;;;;;;;14.43;3.22;;;;;;;8.69;73.03;101652.03;4993222;28;20502;-85
2022/01/14 05:39:27;;;;;;;13.52;3.22;;;;;;;8.67;71.57;101653.72;4991676;28;20129;-81
2022/01/14 05:41:55;;;;;;;10.65;3.45;;;;;;;8.67;71.18;101664.25;4987765;28;20070;-82
2022/01/14 05:44:24;;;;;;;12.18;3.50;;;;;;;8.69;70.99;101679.25;5027564;28;20124;-83
2022/01/14 05:46:52;;;;;;;19.00;6.85;;;;;;;8.71;70.85;101687.22;5004931;28;20415;-83
2022/01/14 05:49:20;;;;;;;17.02;4.22;;;;;;;8.72;70.74;101687.28;4990719;28;20070;-82
2022/01/14 05:51:50;;;;;;;18.00;7.10;;;;;;;8.76;70.53;101699.72;4982668;28;20384;-82
2022/01/14 05:54:18;;;;;;;14.90;6.45;;;;;;;8.78;70.06;101702.41;4973082;28;20527;-82
2022/01/14 05:56:46;;;;;;;10.55;5.07;;;;;;;8.74;69.05;101706.66;4988430;28;20579;-81
2022/01/14 05:59:14;;;;;;;29.67;10.82;;;;;;;8.74;68.64;101696.13;4992160;28;20625;-82
2022/01/14 06:01:42;;;;;;;14.68;6.97;;;;;;;8.76;69.31;101691.81;5015045;28;20064;-81
2022/01/14 06:04:10;;;;;;;32.15;16.25;;;;;;;8.80;69.57;101692.81;5009978;28;20046;-79
2022/01/14 06:06:38;;;;;;;22.55;7.22;;;;;;;8.83;69.62;101686.78;5010679;28;20053;-81
2022/01/14 06:09:07;;;;;;;18.73;9.32;;;;;;;8.86;68.89;101689.53;5010683;28;20042;-81
2022/01/14 06:11:35;;;;;;;19.73;10.65;;;;;;;8.87;69.03;101684.31;4993393;28;20042;-79
2022/01/14 06:14:03;;;;;;;29.95;12.32;;;;;;;8.90;68.79;101678.28;4991157;28;20402;-81
2022/01/14 06:16:30;;;;;;;13.85;5.22;;;;;;;8.91;69.10;101693.22;4990734;28;20057;-79
2022/01/14 06:18:58;;;;;;;10.90;4.47;;;;;;;8.93;68.82;101687.16;4989888;28;20043;-81
2022/01/14 06:21:25;;;;;;;14.68;6.47;;;;;;;8.97;69.36;101689.09;4989568;28;20038;-80
2022/01/14 06:23:53;;;;;;;13.40;4.40;;;;;;;8.99;69.34;101694.44;4993331;28;20261;-80
2022/01/14 06:26:23;;;;;;;18.48;5.55;;;;;;;9.03;69.72;101694.59;5004794;28;20081;-79
2022/01/14 06:28:50;;;;;;;16.85;5.47;;;;;;;9.03;69.74;101707.75;5010794;28;20045;-81
2022/01/14 06:31:18;;;;;;;14.77;6.72;;;;;;;9.05;69.66;101706.06;5010065;28;20453;-82
2022/01/14 06:33:46;;;;;;;12.00;5.40;;;;;;;9.08;69.98;101721.06;5010343;28;20100;-81
2022/01/14 06:36:14;;;;;;;18.10;5.43;;;;;;;9.09;69.78;101707.97;5009824;28;20037;-80
2022/01/14 06:38:42;;;;;;;26.23;7.55;;;;;;;9.10;69.92;101703.59;5001773;28;20061;-81
2022/01/14 06:41:10;;;;;;;18.33;6.20;;;;;;;9.10;69.43;101698.34;4990485;28;20399;-76
2022/01/14 06:43:39;;;;;;;12.18;5.03;;;;;;;9.13;69.29;101706.34;4992661;28;20411;-81
2022/01/14 06:46:06;;;;;;;15.52;6.20;;;;;;;9.13;69.61;101704.59;5001117;28;20053;-80
2022/01/14 06:48:35;;;;;;;13.48;5.07;;;;;;;9.16;69.69;101703.81;5004476;28;20112;-80
2022/01/14 06:51:02;;;;;;;12.93;4.50;;;;;;;9.19;69.85;101696.00;4977943;28;20050;-81
2022/01/14 06:53:30;;;;;;;15.85;4.78;;;;;;;9.19;69.42;101707.44;5024582;28;20060;-81
2022/01/14 06:55:58;;;;;;;12.43;5.45;;;;;;;9.21;69.04;101704.88;5008444;28;20053;-81
2022/01/14 06:58:25;;;;;;;15.27;5.65;;;;;;;9.24;69.16;101715.53;5006998;28;20129;-81
2022/01/14 07:00:55;;;;;;;15.65;6.60;;;;;;;9.30;69.18;101712.22;5002928;28;20573;-81
2022/01/14 07:03:23;;;;;;;16.33;5.50;;;;;;;9.32;69.73;101719.31;5010718;28;20038;-80
2022/01/14 07:05:51;;;;;;;14.27;4.45;;;;;;;9.30;68.56;101694.69;4994637;28;20042;-82
2022/01/14 07:08:18;;;;;;;12.80;4.45;;;;;;;9.33;68.65;101728.13;4997926;28;20088;-82
2022/01/14 07:10:46;;;;;;;13.55;4.65;;;;;;;9.34;68.38;101722.03;4994874;28;20503;-83
2022/01/14 07:13:13;;;;;;;13.63;3.80;;;;;;;9.33;67.11;101713.22;5007289;28;20049;-83
2022/01/14 07:15:41;;;;;;;15.15;4.68;;;;;;;9.36;66.92;101715.97;4998614;28;20038;-81
2022/01/14 07:18:10;;;;;;;12.30;4.38;;;;;;;9.39;66.55;101725.72;4994976;28;20035;-82
2022/01/14 07:20:38;;;;;;;10.27;3.10;;;;;;;9.36;64.89;101731.78;4993581;28;20061;-82
2022/01/14 07:23:06;;;;;;;10.70;3.40;;;;;;;9.38;65.18;101750.31;5010406;28;20411;-84
2022/01/14 07:25:34;;;;;;;10.60;3.20;;;;;;;9.38;65.04;101743.28;5009521;28;20038;-83
2022/01/14 07:28:01;;;;;;;9.02;5.03;;;;;;;9.39;65.15;101750.31;4974076;28;20100;-83
2022/01/14 07:30:29;;;;;;;6.95;2.72;;;;;;;9.41;64.75;101724.03;4990539;28;20045;-83
2022/01/14 07:32:57;;;;;;;12.07;4.03;;;;;;;9.46;64.43;101740.91;4993421;28;20051;-84
2022/01/14 07:35:28;;;;;;;11.07;3.50;;;;;;;9.52;64.35;101739.38;5006904;28;20506;-83
2022/01/14 07:37:57;;;;;;;10.32;4.03;;;;;;;9.53;64.46;101746.44;5034040;28;20053;-83
2022/01/14 07:40:24;;;;;;;18.77;4.20;;;;;;;9.57;64.82;101740.47;5000458;28;20042;-84
2022/01/14 07:42:52;;;;;;;11.40;3.53;;;;;;;9.64;64.60;101744.22;4994075;28;20507;-83
2022/01/14 07:45:20;;;;;;;12.15;2.85;;;;;;;9.68;64.16;101740.81;5010781;28;20042;-83
2022/01/14 07:47:48;;;;;;;13.98;4.15;;;;;;;9.70;63.77;101733.88;5010731;28;20042;-80
2022/01/14 07:50:15;;;;;;;10.18;3.38;;;;;;;9.77;64.00;101749.06;4996088;28;20070;-80
2022/01/14 07:52:45;;;;;;;11.35;3.53;;;;;;;9.84;63.86;101744.91;5014382;28;20069;-82
2022/01/14 07:55:13;;;;;;;11.13;3.42;;;;;;;9.89;63.47;101744.22;5012829;28;20045;-82
2022/01/14 07:57:40;;;;;;;13.65;4.72;;;;;;;9.93;63.31;101739.91;5000469;28;20490;-80
2022/01/14 08:00:09;;;;;;;14.00;4.22;;;;;;;9.96;63.86;101746.22;4999216;28;20061;-81
2022/01/14 08:02:37;;;;;;;20.90;6.28;;;;;;;9.98;64.03;101748.88;4996889;28;20406;-81
2022/01/14 08:05:05;;;;;;;13.15;4.82;;;;;;;10.05;64.18;101742.06;5017173;28;20073;-81
2022/01/14 08:07:34;;;;;;;15.20;5.68;;;;;;;10.15;64.57;101742.44;4996571;28;20049;-82
2022/01/14 08:10:06;;;;;;;13.27;5.07;;;;;;;10.25;64.72;101734.00;4993339;28;20046;-81
2022/01/14 08:12:33;;;;;;;15.77;7.03;;;;;;;10.23;64.04;101753.28;4993297;28;20039;-82
2022/01/14 08:15:01;;;;;;;15.93;6.78;;;;;;;10.22;64.36;101740.94;4994438;28;20494;-82
2022/01/14 08:17:29;;;;;;;14.93;7.57;;;;;;;10.23;64.89;101761.22;4993139;28;20038;-82
2022/01/14 08:19:57;;;;;;;18.38;8.32;;;;;;;10.19;64.98;101757.56;4998470;28;20130;-82
2022/01/14 08:22:24;;;;;;;16.95;6.28;;;;;;;10.15;64.98;101758.28;5016256;28;20552;-84
2022/01/14 08:24:52;;;;;;;11.07;3.35;;;;;;;10.15;65.00;101757.38;5014212;28;20053;-84
2022/01/14 08:27:21;;;;;;;14.85;4.72;;;;;;;10.14;64.84;101763.50;4996847;28;20068;-84
2022/01/14 08:29:50;;;;;;;13.52;4.95;;;;;;;10.09;64.57;101730.78;5011994;28;20081;-85
2022/01/14 08:32:18;;;;;;;14.05;7.47;;;;;;;10.03;63.90;101757.88;5014003;28;20545;-86
2022/01/14 08:34:45;;;;;;;11.90;4.35;;;;;;;10.08;64.17;101743.09;5013254;28;20466;-85
2022/01/14 08:37:13;;;;;;;17.92;5.03;;;;;;;10.18;63.58;101745.19;5012403;28;20061;-84
2022/01/14 08:39:40;;;;;;;13.13;2.90;;;;;;;10.26;62.20;101743.72;5012128;28;20046;-82
2022/01/14 08:42:09;;;;;;;8.60;3.72;;;;;;;10.26;62.49;101750.72;5014247;28;20042;-83
2022/01/14 08:44:39;;;;;;;13.30;4.75;;;;;;;10.27;62.00;101739.34;5028710;28;20052;-82
2022/01/14 08:47:09;;;;;;;11.27;4.20;;;;;;;10.28;62.07;101747.31;4992784;28;20406;-81
2022/01/14 08:49:37;;;;;;;12.77;5.55;;;;;;;10.29;62.43;101753.50;5012279;28;20041;-80
2022/01/14 08:52:05;;;;;;;11.73;4.47;;;;;;;10.34;62.70;101757.16;4996402;28;20057;-79
2022/01/14 08:54:33;;;;;;;14.15;3.83;;;;;;;10.43;63.14;101754.84;4992391;28;20062;-79
2022/01/14 08:57:02;;;;;;;16.30;3.78;;;;;;;10.50;63.05;101740.94;4992018;28;20080;-79
2022/01/14 08:59:30;;;;;;;12.80;3.25;;;;;;;10.49;63.02;101741.81;4990453;28;20053;-79
2022/01/14 09:02:00;;;;;;;11.50;4.60;;;;;;;10.57;62.70;101757.88;4990397;28;20074;-79
2022/01/14 09:04:28;;;;;;;14.18;4.70;;;;;;;10.93;62.78;101745.81;4990625;28;20124;-80
2022/01/14 09:06:56;;;;;;;10.63;4.45;;;;;;;11.41;62.04;101749.00;4990514;28;20057;-80
2022/01/14 09:09:23;;;;;;;14.05;4.60;;;;;;;11.35;61.24;101745.28;4990647;28;20041;-79
2022/01/14 09:11:51;;;;;;;14.63;4.20;;;;;;;11.21;61.49;101744.00;4991629;28;20455;-79
2022/01/14 09:14:21;;;;;;;11.38;3.83;;;;;;;11.05;61.51;101743.53;4989758;28;20117;-80
2022/01/14 09:16:49;;;;;;;8.95;4.05;;;;;;;10.97;61.78;101737.13;4991031;28;20629;-80
2022/01/14 09:19:20;;;;;;;10.25;4.03;;;;;;;10.89;61.15;101730.75;4990522;28;20101;-79
2022/01/14 09:21:48;;;;;;;9.98;3.67;;;;;;;10.97;61.88;101731.84;4973771;28;20043;-79
2022/01/14 09:24:16;;;;;;;12.68;4.80;;;;;;;11.04;61.52;101715.31;4988899;28;20126;-79
2022/01/14 09:26:44;;;;;;;10.73;3.95;;;;;;;11.13;61.49;101712.06;4991709;28;20042;-79
2022/01/14 09:29:12;;;;;;;12.90;5.55;;;;;;;11.13;61.36;101706.78;5006218;28;20046;-79
2022/01/14 09:31:40;;;;;;;12.20;3.75;;;;;;;11.18;61.57;101694.56;4987688;28;20510;-79
2022/01/14 09:34:07;;;;;;;11.23;3.17;;;;;;;11.17;61.27;101695.41;4989857;28;20077;-79
2022/01/14 09:36:36;;;;;;;11.13;2.83;;;;;;;11.18;61.21;101673.44;5006582;28;20062;-79
2022/01/14 09:39:05;;;;;;;12.18;3.72;;;;;;;11.11;60.63;101679.41;5009612;28;20518;-81
2022/01/14 09:41:32;;;;;;;11.70;4.35;;;;;;;11.12;61.03;101660.06;5009129;28;20138;-79
2022/01/14 09:44:01;;;;;;;11.93;3.33;;;;;;;11.22;61.41;101655.94;5010788;28;23801;-80
2022/01/14 09:46:28;;;;;;;6.85;3.17;;;;;;;11.42;62.18;101654.72;5010807;28;20048;-79
2022/01/14 09:48:56;;;;;;;10.68;3.42;;;;;;;11.90;63.50;101637.47;5010092;28;20084;-79
2022/01/14 09:51:24;;;;;;;9.63;2.53;;;;;;;12.23;63.41;101634.72;5009302;28;20118;-79
2022/01/14 09:53:53;;;;;;;7.35;3.35;;;;;;;12.31;63.17;101634.88;5009844;28;20103;-79
2022/01/14 09:56:22;;;;;;;6.90;1.95;;;;;;;12.29;62.78;101620.72;4996749;28;20078;-79
2022/01/14 09:58:51;;;;;;;8.40;2.80;;;;;;;12.08;60.97;101612.31;5009094;28;20069;-79
2022/01/14 10:01:20;;;;;;;10.43;3.28;;;;;;;11.84;61.66;101616.16;5010346;28;20414;-79
2022/01/14 10:03:50;;;;;;;7.35;1.58;;;;;;;11.65;61.65;101608.59;5010111;28;20119;-79
2022/01/14 10:06:37;;;;;;;9.15;3.22;;;;;;;11.43;61.86;101591.28;5025404;28;20034;-79
2022/01/14 10:09:10;;;;;;;10.27;2.85;;;;;;;11.26;61.83;101597.00;5004809;28;20046;-78
2022/01/14 10:11:39;;;;;;;8.63;3.17;;;;;;;11.11;61.91;101589.56;5010314;28;20041;-79
2022/01/14 10:14:12;;;;;;;12.20;3.08;;;;;;;11.10;62.21;101593.03;5010113;28;20046;-79
2022/01/14 10:16:41;;;;;;;10.10;2.10;;;;;;;11.05;62.13;101585.00;5008302;28;20046;-76
2022/01/14 10:19:24;;;;;;;9.20;3.15;;;;;;;10.97;62.50;101588.28;5010234;28;20053;-79
2022/01/14 10:21:52;;;;;;;14.35;4.03;;;;;;;11.05;62.74;101586.75;4974567;28;20407;-79
2022/01/14 10:24:24;;;;;;;12.02;4.13;;;;;;;11.16;62.86;101572.97;4990399;28;20122;-79
2022/01/14 10:26:56;;;;;;;16.88;4.13;;;;;;;11.17;63.30;101582.69;4989340;28;20130;-79
2022/01/14 10:29:29;;;;;;;12.32;4.25;;;;;;;11.21;63.64;101574.84;4987849;28;20679;-79
2022/01/14 10:31:57;;;;;;;14.02;4.05;;;;;;;11.22;63.85;101558.16;4988923;28;20054;-78
2022/01/14 10:34:24;;;;;;;15.15;3.50;;;;;;;11.27;63.54;101548.56;4989616;28;20126;-76
2022/01/14 10:37:10;;;;;;;10.98;3.50;;;;;;;11.25;63.08;101551.16;4990164;28;20045;-78
2022/01/14 10:39:45;;;;;;;13.70;5.95;;;;;;;11.20;63.31;101550.16;5009659;28;20044;-80
2022/01/14 10:42:27;;;;;;;26.20;8.55;;;;;;;11.19;63.36;101543.97;5007631;28;20092;-79
2022/01/14 10:44:55;;;;;;;15.98;6.20;;;;;;;11.27;63.85;101532.72;5009078;28;20509;-78
2022/01/14 10:47:25;;;;;;;15.45;5.30;;;;;;;11.31;63.91;101524.00;5008828;28;20038;-80
2022/01/14 10:49:56;;;;;;;13.05;4.65;;;;;;;11.32;63.84;101512.56;5010307;28;20053;-79
2022/01/14 10:52:26;;;;;;;11.45;3.88;;;;;;;11.35;63.92;101521.50;5015442;28;20125;-79
2022/01/14 10:54:58;;;;;;;12.43;4.78;;;;;;;11.31;63.33;101526.63;5007719;28;20111;-81
2022/01/14 10:57:27;;;;;;;13.30;5.15;;;;;;;11.27;63.04;101501.00;5004633;28;20038;-77
2022/01/14 10:59:57;;;;;;;10.43;2.90;;;;;;;11.30;62.86;101501.94;5016570;28;20058;-77
2022/01/14 11:02:35;;;;;;;11.50;4.00;;;;;;;11.44;62.56;101494.34;5008042;28;20133;-78
2022/01/14 11:05:09;;;;;;;8.88;3.63;;;;;;;11.51;62.26;101498.94;5008267;28;20038;-77
2022/01/14 11:07:37;;;;;;;9.93;4.00;;;;;;;11.54;61.90;101505.22;4991224;28;20062;-78
2022/01/14 11:10:21;;;;;;;11.98;4.03;;;;;;;11.66;61.41;101486.09;4998409;28;20046;-79
2022/01/14 11:12:50;;;;;;;12.88;3.03;;;;;;;11.76;61.12;101493.38;4996867;28;20133;-79
2022/01/14 11:15:18;;;;;;;7.88;3.05;;;;;;;11.86;61.23;101494.50;4992742;28;20048;-80
2022/01/14 11:17:51;;;;;;;11.60;4.50;;;;;;;11.86;60.57;101500.69;4982833;28;20094;-78
2022/01/14 11:20:25;;;;;;;16.05;5.63;;;;;;;11.87;61.42;101485.69;4985108;28;20434;-77
2022/01/14 11:25:45;;;;;;;7.28;1.85;;;;;;;11.94;61.55;101462.06;5014813;28;20053;-80
2022/01/14 11:28:14;;;;;;;;;;;;;;;11.96;62.23;101470.91;5013162;28;20037;-80
2022/01/14 11:30:43;;;;;;;11.98;3.67;;;;;;;12.17;62.21;101488.09;5006413;28;19984;-80
2022/01/14 11:33:11;;;;;;;10.88;3.80;;;;;;;12.35;62.56;101464.63;5000059;28;20427;-79
2022/01/14 11:35:39;;;;;;;14.63;4.47;;;;;;;12.35;62.02;101480.53;5010980;28;20119;-81
2022/01/14 11:38:35;;;;;;;12.52;5.30;;;;;;;12.46;61.35;101465.75;5006319;28;20181;-80
2022/01/14 11:41:05;;;;;;;10.07;2.92;;;;;;;12.52;61.17;101468.50;5009196;28;20042;-81
2022/01/14 11:43:44;;;;;;;7.35;2.72;;;;;;;12.53;59.32;101458.81;5007705;28;20112;-81
2022/01/14 11:46:15;;;;;;;9.57;2.53;;;;;;;12.58;59.80;101449.19;5007989;28;20029;-81
2022/01/14 11:48:46;;;;;;;9.20;2.42;;;;;;;12.77;60.37;101452.19;5001671;28;20054;-81
2022/01/14 11:51:16;;;;;;;9.93;2.88;;;;;;;12.92;60.34;101458.63;4993251;28;20046;-81
2022/01/14 11:53:52;;;;;;;10.13;2.72;;;;;;;12.99;61.02;101456.13;4991092;28;20042;-82
2022/01/14 11:56:49;;;;;;;9.57;2.70;;;;;;;13.03;60.18;101446.44;4986558;28;20062;-83
2022/01/14 11:59:41;;;;;;;7.85;2.63;;;;;;;13.10;60.51;101453.63;5013033;28;20413;-82
2022/01/14 12:02:31;;;;;;;4.43;2.28;;;;;;;13.05;59.67;101460.63;4991423;28;20050;-83